Time;durP1;ratioP1;P1;durP2;ratioP2;P2;SDS_P1;SDS_P2;PMS_P1;PMS_P2;Temp;Humidity;BMP_temperature;BMP_pressure;BME280_temperature;BME280_humidity;BME280_pressure;Samples;Min_cycle;Max_cycle;Signal;HPM_P1;HPM_P2
2022/07/11 00:00:11;;;;;;;10.48;2.67;;;15.50;99.90;;;;;;5118813;27;20054;-80
2022/07/11 00:02:41;;;;;;;5.47;2.45;;;15.60;99.90;;;;;;5100595;27;20043;-80
2022/07/11 00:05:10;;;;;;;7.28;2.30;;;15.50;99.90;;;;;;5152360;27;20038;-81
2022/07/11 00:07:37;;;;;;;4.63;2.80;;;15.50;99.90;;;;;;5156569;27;20080;-80
2022/07/11 00:10:03;;;;;;;9.30;2.60;;;15.50;99.90;;;;;;5155555;27;20047;-81
2022/07/11 00:12:29;;;;;;;6.80;2.58;;;15.50;99.90;;;;;;5136898;27;20047;-81
2022/07/11 00:14:55;;;;;;;7.13;2.60;;;15.50;99.90;;;;;;5136770;27;20051;-80
2022/07/11 00:17:22;;;;;;;6.70;2.55;;;15.50;99.90;;;;;;5156262;27;20038;-81
2022/07/11 00:19:49;;;;;;;4.03;2.38;;;15.50;99.90;;;;;;5135862;27;20053;-81
2022/07/11 00:22:15;;;;;;;8.05;2.63;;;15.50;99.90;;;;;;5137774;27;20101;-81
2022/07/11 00:24:40;;;;;;;5.82;2.85;;;15.50;99.90;;;;;;5136534;27;20107;-81
2022/07/11 00:27:06;;;;;;;7.88;2.50;;;15.50;99.90;;;;;;5119527;27;20049;-81
2022/07/11 00:29:32;;;;;;;8.65;2.55;;;15.40;99.90;;;;;;5154720;27;20039;-81
2022/07/11 00:31:59;;;;;;;6.25;2.70;;;15.40;99.90;;;;;;5137589;27;20054;-81
2022/07/11 00:34:25;;;;;;;11.27;2.90;;;15.40;99.90;;;;;;5153978;27;20085;-81
2022/07/11 00:36:51;;;;;;;7.38;2.80;;;15.40;99.90;;;;;;5137192;27;20094;-81
2022/07/11 00:39:17;;;;;;;10.43;3.78;;;15.40;99.90;;;;;;5155168;27;20114;-81
2022/07/11 00:41:43;;;;;;;7.82;3.25;;;15.40;99.90;;;;;;5119383;27;20125;-81
2022/07/11 00:44:09;;;;;;;10.13;3.40;;;15.40;99.90;;;;;;5136164;27;20050;-81
2022/07/11 00:46:35;;;;;;;7.88;2.90;;;15.40;99.90;;;;;;5137476;27;20066;-81
2022/07/11 00:49:01;;;;;;;9.63;3.83;;;15.40;99.90;;;;;;5135314;27;20061;-81
2022/07/11 00:51:28;;;;;;;10.00;3.20;;;15.40;99.90;;;;;;5136124;27;20039;-81
2022/07/11 00:53:56;;;;;;;11.48;3.90;;;15.40;99.90;;;;;;5136960;27;20042;-81
2022/07/11 00:56:25;;;;;;;8.52;3.53;;;15.40;99.90;;;;;;5135307;27;20038;-81
2022/07/11 00:58:51;;;;;;;8.30;3.05;;;15.40;99.90;;;;;;5120099;27;20077;-81
2022/07/11 01:01:18;;;;;;;9.48;3.60;;;15.30;99.90;;;;;;5113798;27;20501;-81
2022/07/11 01:03:45;;;;;;;10.27;3.53;;;15.30;99.90;;;;;;5099011;27;20509;-81
2022/07/11 01:06:11;;;;;;;8.40;4.00;;;15.40;99.90;;;;;;5102413;27;20075;-80
2022/07/11 01:08:41;;;;;;;10.43;3.83;;;15.30;99.90;;;;;;5136118;27;20157;-81
2022/07/11 01:11:18;;;;;;;11.90;3.15;;;16.00;99.90;;;;;;5135368;27;20039;-81
2022/07/11 01:13:45;;;;;;;11.80;4.18;;;15.30;99.90;;;;;;5154910;27;20411;-81
2022/07/11 01:16:17;;;;;;;10.88;3.78;;;15.30;99.90;;;;;;5135068;27;20077;-81
2022/07/11 01:18:47;;;;;;;14.50;3.97;;;15.30;99.90;;;;;;5155206;27;20042;-81
2022/07/11 01:21:23;;;;;;;6.90;3.55;;;15.30;99.90;;;;;;5135874;27;20524;-80
2022/07/11 01:23:51;;;;;;;7.20;3.38;;;15.30;99.90;;;;;;5154467;27;20402;-80
2022/07/11 01:26:20;;;;;;;6.65;3.80;;;15.30;99.90;;;;;;5154386;27;20048;-80
2022/07/11 01:28:45;;;;;;;11.23;4.22;;;15.30;99.90;;;;;;5155091;27;20054;-81
2022/07/11 01:31:12;;;;;;;12.07;3.88;;;15.30;99.90;;;;;;5135099;27;20042;-81
2022/07/11 01:33:39;;;;;;;7.43;3.42;;;15.30;99.90;;;;;;5136433;27;20047;-81
2022/07/11 01:36:05;;;;;;;7.60;3.97;;;15.30;99.90;;;;;;5136143;27;20439;-81
2022/07/11 01:38:31;;;;;;;8.73;3.90;;;15.30;99.90;;;;;;5136148;27;20027;-81
2022/07/11 01:40:56;;;;;;;14.90;3.90;;;15.30;99.90;;;;;;5155020;27;20402;-81
2022/07/11 01:43:22;;;;;;;11.48;3.90;;;15.30;99.90;;;;;;5118498;27;20132;-80
2022/07/11 01:45:55;;;;;;;8.48;3.38;;;15.30;99.90;;;;;;5133007;27;20047;-81
2022/07/11 01:48:22;;;;;;;15.10;4.97;;;15.30;99.90;;;;;;5154970;27;20039;-80
2022/07/11 01:50:48;;;;;;;8.73;4.38;;;15.30;99.90;;;;;;5134623;27;20042;-81
2022/07/11 01:53:14;;;;;;;16.13;4.55;;;15.30;99.90;;;;;;5136361;27;20121;-81
2022/07/11 01:55:41;;;;;;;9.85;3.90;;;15.30;99.90;;;;;;5118594;27;20118;-81
2022/07/11 01:58:07;;;;;;;6.30;3.67;;;15.30;99.90;;;;;;5135721;27;20043;-81
2022/07/11 02:00:33;;;;;;;10.93;4.22;;;15.30;99.90;;;;;;5134640;27;20394;-81
2022/07/11 02:02:58;;;;;;;10.07;3.83;;;15.30;99.90;;;;;;5136236;27;20045;-81
2022/07/11 02:05:24;;;;;;;12.95;4.00;;;15.20;99.90;;;;;;5117395;27;20099;-81
2022/07/11 02:10:34;;;;;;;13.50;4.07;;;15.20;99.90;;;;;;5135204;27;20077;-80
2022/07/11 02:13:00;;;;;;;13.52;4.97;;;15.20;99.90;;;;;;5134929;27;20090;-81
2022/07/11 02:15:29;;;;;;;15.27;4.05;;;15.20;99.90;;;;;;5153809;27;20115;-80
2022/07/11 02:17:56;;;;;;;10.25;3.60;;;15.20;99.90;;;;;;5139658;27;20542;-81
2022/07/11 02:20:23;;;;;;;10.95;3.50;;;15.20;99.90;;;;;;5156276;27;20039;-80
2022/07/11 02:22:49;;;;;;;9.10;3.83;;;15.20;99.90;;;;;;5123091;27;20050;-80
2022/07/11 02:25:16;;;;;;;8.65;3.35;;;15.20;99.90;;;;;;5157647;27;20134;-80
2022/07/11 02:27:42;;;;;;;9.82;3.38;;;15.20;99.90;;;;;;5121879;27;20046;-80
2022/07/11 02:30:08;;;;;;;7.68;3.28;;;15.20;99.90;;;;;;5138863;27;20151;-81
2022/07/11 02:32:34;;;;;;;9.95;3.45;;;15.30;99.90;;;;;;5139800;27;20501;-80
2022/07/11 02:34:59;;;;;;;5.68;3.20;;;15.30;99.90;;;;;;5137379;27;20043;-80
2022/07/11 02:37:25;;;;;;;11.73;3.40;;;15.30;99.90;;;;;;5139829;27;20043;-81
2022/07/11 02:39:51;;;;;;;7.40;3.17;;;15.30;99.90;;;;;;5155838;27;20134;-81
2022/07/11 02:42:20;;;;;;;9.77;3.10;;;15.30;99.90;;;;;;5158212;27;20129;-81
2022/07/11 02:44:47;;;;;;;6.55;2.92;;;15.30;99.90;;;;;;5137957;27;20095;-80
2022/07/11 02:47:15;;;;;;;14.05;3.22;;;15.30;99.90;;;;;;5157242;27;20043;-81
2022/07/11 02:49:42;;;;;;;8.93;3.47;;;15.30;99.90;;;;;;5156437;27;20050;-80
2022/07/11 02:52:07;;;;;;;8.82;3.03;;;15.30;99.90;;;;;;5157790;27;20553;-81
2022/07/11 02:54:33;;;;;;;7.90;2.83;;;15.30;99.90;;;;;;5156056;27;20176;-81
2022/07/11 02:56:59;;;;;;;12.30;2.92;;;15.30;99.90;;;;;;5139522;27;20091;-81
2022/07/11 02:59:25;;;;;;;8.00;2.80;;;15.30;99.90;;;;;;5138343;27;20046;-81
2022/07/11 03:01:51;;;;;;;6.82;3.05;;;15.30;99.90;;;;;;5156869;27;20043;-81
2022/07/11 03:04:17;;;;;;;8.70;2.90;;;15.30;99.90;;;;;;5156669;27;20037;-81
2022/07/11 03:06:43;;;;;;;5.38;3.00;;;15.30;99.90;;;;;;5138925;27;20517;-81
2022/07/11 03:09:09;;;;;;;12.32;3.50;;;15.30;99.90;;;;;;5137613;27;20046;-81
2022/07/11 03:11:36;;;;;;;9.02;3.40;;;15.30;99.90;;;;;;5157661;27;20033;-81
2022/07/11 03:14:02;;;;;;;7.85;2.88;;;15.30;99.90;;;;;;5156162;27;20050;-81
2022/07/11 03:16:29;;;;;;;5.20;2.08;;;15.30;99.90;;;;;;5138007;27;20046;-82
2022/07/11 03:18:56;;;;;;;7.53;2.72;;;15.30;99.90;;;;;;5135999;27;20493;-81
2022/07/11 03:21:22;;;;;;;5.60;2.33;;;15.30;99.90;;;;;;5121669;27;20042;-81
2022/07/11 03:23:49;;;;;;;7.38;2.47;;;15.30;99.90;;;;;;5137261;27;20042;-81
2022/07/11 03:26:16;;;;;;;2.70;2.13;;;15.30;99.90;;;;;;5157197;27;20481;-81
2022/07/11 03:28:42;;;;;;;6.38;2.05;;;15.30;99.90;;;;;;5137179;27;20039;-81
2022/07/11 03:31:07;;;;;;;6.30;2.25;;;15.30;99.90;;;;;;5136209;27;20561;-81
2022/07/11 03:33:33;;;;;;;3.38;2.10;;;15.30;99.90;;;;;;5121221;27;20046;-81
2022/07/11 03:35:59;;;;;;;7.03;2.65;;;15.30;99.90;;;;;;5154518;27;20163;-80
2022/07/11 03:38:25;;;;;;;9.43;2.42;;;15.30;99.90;;;;;;5138016;27;20090;-81
2022/07/11 03:40:51;;;;;;;7.97;2.72;;;15.30;99.90;;;;;;5120574;27;20359;-81
2022/07/11 03:43:16;;;;;;;6.97;2.20;;;15.30;99.90;;;;;;5156105;27;20439;-81
2022/07/11 03:45:42;;;;;;;6.53;2.30;;;15.30;99.90;;;;;;5130656;27;20031;-81
2022/07/11 03:48:08;;;;;;;4.20;2.28;;;15.30;99.90;;;;;;5100865;27;20051;-81
2022/07/11 03:50:35;;;;;;;5.28;2.22;;;15.30;99.90;;;;;;5122182;27;20351;-80
2022/07/11 03:53:02;;;;;;;8.00;1.95;;;15.30;99.90;;;;;;5138109;27;20050;-81
2022/07/11 03:55:28;;;;;;;5.50;2.63;;;15.30;99.90;;;;;;5152324;27;20121;-80
2022/07/11 03:57:54;;;;;;;5.72;2.55;;;15.30;99.90;;;;;;5116564;27;20453;-81
2022/07/11 04:00:21;;;;;;;10.55;2.40;;;15.30;99.90;;;;;;5135979;27;20046;-81
2022/07/11 04:02:50;;;;;;;2.90;2.05;;;15.30;99.90;;;;;;5117404;27;20107;-80
2022/07/11 04:05:16;;;;;;;6.35;2.20;;;15.30;99.90;;;;;;5116645;27;20095;-80
2022/07/11 04:07:42;;;;;;;6.30;2.28;;;15.30;99.90;;;;;;5156520;27;20436;-81
2022/07/11 04:10:08;;;;;;;4.95;2.15;;;15.30;99.90;;;;;;5156115;27;20058;-80
2022/07/11 04:12:34;;;;;;;5.20;2.05;;;15.30;99.90;;;;;;5132824;27;20055;-81
2022/07/11 04:15:00;;;;;;;7.97;2.10;;;15.30;99.90;;;;;;5135329;27;20050;-80
2022/07/11 04:17:26;;;;;;;5.03;1.88;;;15.30;99.90;;;;;;5116369;27;20047;-81
2022/07/11 04:19:53;;;;;;;5.47;2.00;;;15.30;99.90;;;;;;5115988;27;20383;-81
2022/07/11 04:22:22;;;;;;;8.40;2.10;;;15.30;99.90;;;;;;5133432;27;20049;-81
2022/07/11 04:24:48;;;;;;;3.45;1.60;;;15.30;99.90;;;;;;5135382;27;20055;-80
2022/07/11 04:27:14;;;;;;;9.05;2.00;;;15.30;99.90;;;;;;5132510;27;20039;-80
2022/07/11 04:29:40;;;;;;;5.18;1.70;;;15.40;99.90;;;;;;5135234;27;20490;-80
2022/07/11 04:32:06;;;;;;;3.38;1.55;;;15.40;99.90;;;;;;5121479;27;20043;-81
2022/07/11 04:34:31;;;;;;;5.45;1.67;;;15.40;99.90;;;;;;5112489;28;20043;-81
2022/07/11 04:36:57;;;;;;;3.00;1.10;;;15.30;99.90;;;;;;5113795;27;20049;-81
2022/07/11 04:39:24;;;;;;;4.07;1.50;;;15.40;99.90;;;;;;5095234;28;20130;-81
2022/07/11 04:41:50;;;;;;;3.08;1.50;;;15.40;99.90;;;;;;5116981;27;20491;-80
2022/07/11 04:44:16;;;;;;;5.88;1.40;;;15.40;99.90;;;;;;5113309;28;20047;-80
2022/07/11 04:46:41;;;;;;;3.22;1.27;;;15.40;99.90;;;;;;5121335;27;20452;-81
2022/07/11 04:49:07;;;;;;;5.50;1.50;;;15.40;99.90;;;;;;5133551;27;20049;-81
2022/07/11 04:51:33;;;;;;;2.75;1.45;;;15.50;99.90;;;;;;5132753;27;20031;-81
2022/07/11 04:53:59;;;;;;;3.08;1.38;;;15.40;99.90;;;;;;5133799;27;20129;-83
2022/07/11 04:56:24;;;;;;;3.40;1.33;;;15.50;99.90;;;;;;5126453;27;20088;-83
2022/07/11 04:58:50;;;;;;;5.97;1.40;;;15.40;99.90;;;;;;5117683;27;20050;-82
2022/07/11 05:01:16;;;;;;;3.17;1.23;;;15.50;99.90;;;;;;5121396;27;20121;-83
2022/07/11 05:03:41;;;;;;;2.75;1.30;;;15.50;99.90;;;;;;5135687;27;20039;-83
2022/07/11 05:06:07;;;;;;;7.13;1.42;;;15.50;99.90;;;;;;5121477;27;20447;-83
2022/07/11 05:08:36;;;;;;;2.75;1.35;;;15.50;99.90;;;;;;5095203;28;20096;-84
2022/07/11 05:11:03;;;;;;;3.08;1.40;;;15.50;99.90;;;;;;5113710;28;20157;-83
2022/07/11 05:13:29;;;;;;;5.50;1.48;;;15.50;99.90;;;;;;5126482;27;20063;-83
2022/07/11 05:15:55;;;;;;;2.83;1.38;;;15.60;99.90;;;;;;5108064;27;20094;-83
2022/07/11 05:18:20;;;;;;;2.95;1.83;;;15.60;99.90;;;;;;5138325;27;20047;-84
2022/07/11 05:20:48;;;;;;;2.92;1.50;;;15.60;99.90;;;;;;5138005;27;20578;-84
2022/07/11 05:23:14;;;;;;;5.70;1.75;;;15.60;99.90;;;;;;5136346;27;20046;-83
2022/07/11 05:25:40;;;;;;;5.43;1.63;;;15.60;99.90;;;;;;5157783;27;20147;-84
2022/07/11 05:28:06;;;;;;;7.85;1.65;;;15.70;99.90;;;;;;5138917;27;20082;-83
2022/07/11 05:30:31;;;;;;;4.03;1.50;;;15.70;99.90;;;;;;5155210;27;20396;-83
2022/07/11 05:32:57;;;;;;;5.47;1.50;;;15.80;99.90;;;;;;5154696;27;20567;-83
2022/07/11 05:35:25;;;;;;;4.18;1.40;;;15.80;99.90;;;;;;5137629;27;20134;-84
2022/07/11 05:37:51;;;;;;;2.78;1.55;;;15.90;99.90;;;;;;5136675;27;20043;-83
2022/07/11 05:40:16;;;;;;;3.05;1.35;;;15.90;99.90;;;;;;5138035;27;20057;-84
2022/07/11 05:42:42;;;;;;;2.85;1.23;;;15.90;99.90;;;;;;5136574;27;20122;-82
2022/07/11 05:45:09;;;;;;;6.97;1.33;;;15.90;99.90;;;;;;5152183;27;20046;-82
2022/07/11 05:47:35;;;;;;;4.38;1.20;;;15.90;99.90;;;;;;5154299;27;20071;-82
2022/07/11 05:50:00;;;;;;;2.70;1.20;;;15.90;99.90;;;;;;5136380;27;20490;-82
2022/07/11 05:52:26;;;;;;;3.80;1.20;;;16.00;99.90;;;;;;5123283;27;20055;-82
2022/07/11 05:54:52;;;;;;;2.25;1.17;;;15.90;99.90;;;;;;5143217;27;20035;-83
2022/07/11 05:57:17;;;;;;;2.80;1.08;;;16.00;99.90;;;;;;5153112;27;20117;-83
2022/07/11 05:59:53;;;;;;;5.95;1.10;;;15.90;99.90;;;;;;5135882;27;20129;-82
2022/07/11 06:02:25;;;;;;;3.72;1.98;;;16.00;99.90;;;;;;5108354;27;20417;-82
2022/07/11 06:04:50;;;;;;;5.43;1.20;;;15.90;99.90;;;;;;5114066;27;20043;-82
2022/07/11 06:08:40;;;;;;;2.03;1.10;;;16.00;99.90;;;;;;5136718;27;20419;-82
2022/07/11 06:10:02;;;;;;;3.13;1.30;;;15.90;99.90;;;;;;5118659;27;20051;-82
2022/07/11 06:12:28;;;;;;;4.70;1.30;;;16.00;99.90;;;;;;5119151;27;20481;-81
2022/07/11 06:14:54;;;;;;;5.30;1.10;;;16.00;99.90;;;;;;5137863;27;20057;-83
2022/07/11 06:17:20;;;;;;;6.32;1.05;;;16.00;99.90;;;;;;5134114;27;20043;-82
2022/07/11 06:19:45;;;;;;;3.28;1.10;;;16.00;99.90;;;;;;5138368;27;20369;-82
2022/07/11 06:22:11;;;;;;;2.67;0.88;;;16.00;99.90;;;;;;5158211;27;20519;-82
2022/07/11 06:24:37;;;;;;;7.95;1.20;;;16.00;99.90;;;;;;5156192;27;20045;-81
2022/07/11 06:27:04;;;;;;;2.97;1.00;;;16.00;99.90;;;;;;5137917;27;20043;-82
2022/07/11 06:29:30;;;;;;;1.83;0.93;;;16.00;99.90;;;;;;5139599;27;20091;-82
2022/07/11 06:31:56;;;;;;;4.22;0.95;;;16.00;99.90;;;;;;5153901;27;20042;-83
2022/07/11 06:34:21;;;;;;;2.85;1.15;;;16.10;99.90;;;;;;5119007;27;20047;-82
2022/07/11 06:36:47;;;;;;;4.47;1.25;;;16.10;99.90;;;;;;5129934;27;20054;-83
2022/07/11 06:39:13;;;;;;;1.48;0.50;;;16.20;99.90;;;;;;5137979;27;20047;-82
2022/07/11 06:41:39;;;;;;;1.10;0.50;;;16.20;99.90;;;;;;5158153;27;20043;-82
2022/07/11 06:44:05;;;;;;;1.25;0.68;;;16.30;99.90;;;;;;5157493;27;20046;-83
2022/07/11 06:46:30;;;;;;;2.65;0.70;;;16.30;99.90;;;;;;5156966;27;20035;-83
2022/07/11 06:48:56;;;;;;;1.52;0.38;;;16.30;99.90;;;;;;5158238;27;20042;-83
2022/07/11 06:51:22;;;;;;;0.85;0.40;;;16.30;99.90;;;;;;5158174;27;20037;-82
2022/07/11 06:53:48;;;;;;;1.20;0.47;;;16.30;99.90;;;;;;5137306;27;20051;-83
2022/07/11 06:56:14;;;;;;;1.20;0.40;;;16.20;99.90;;;;;;5138956;27;20086;-82
2022/07/11 06:58:39;;;;;;;0.70;0.25;;;16.20;99.90;;;;;;5155338;27;20046;-82
2022/07/11 07:01:07;;;;;;;1.60;0.30;;;16.30;99.90;;;;;;5155261;27;20485;-84
2022/07/11 07:03:34;;;;;;;2.78;0.40;;;16.20;99.90;;;;;;5156245;27;20050;-83
2022/07/11 07:06:01;;;;;;;1.38;0.30;;;16.20;99.90;;;;;;5156715;27;20396;-82
2022/07/11 07:08:28;;;;;;;1.75;0.40;;;16.20;99.90;;;;;;5137591;27;20484;-82
2022/07/11 07:10:55;;;;;;;0.85;0.30;;;16.10;99.90;;;;;;5146804;27;20118;-83
2022/07/11 07:13:25;;;;;;;0.80;0.20;;;16.10;99.90;;;;;;5154093;27;20103;-83
2022/07/11 07:15:52;;;;;;;0.52;0.22;;;16.20;99.90;;;;;;5117824;27;20409;-83
2022/07/11 07:18:18;;;;;;;3.42;0.50;;;16.20;99.90;;;;;;5135358;27;20485;-83
2022/07/11 07:20:44;;;;;;;2.75;0.45;;;16.30;99.90;;;;;;5144539;27;20043;-83
2022/07/11 07:23:10;;;;;;;1.45;0.60;;;16.40;99.90;;;;;;5117596;27;20049;-82
2022/07/11 07:25:37;;;;;;;1.92;0.60;;;16.40;99.90;;;;;;5147939;27;20050;-83
2022/07/11 07:28:04;;;;;;;3.05;0.50;;;16.40;99.90;;;;;;5157209;27;20039;-83
2022/07/11 07:30:30;;;;;;;0.52;0.30;;;16.40;99.90;;;;;;5155327;27;20057;-83
2022/07/11 07:32:55;;;;;;;1.17;0.32;;;16.50;99.90;;;;;;5156352;27;20034;-83
2022/07/11 07:35:21;;;;;;;2.15;0.38;;;16.40;99.90;;;;;;5129276;27;20042;-82
2022/07/11 07:37:47;;;;;;;2.63;0.38;;;16.40;99.90;;;;;;5150315;27;20051;-83
2022/07/11 07:40:13;;;;;;;1.30;0.50;;;16.40;99.90;;;;;;5156817;27;20486;-83
2022/07/11 07:42:39;;;;;;;1.40;0.50;;;16.40;99.90;;;;;;5155708;27;20049;-83
2022/07/11 07:45:05;;;;;;;3.40;0.98;;;16.40;99.90;;;;;;5155815;27;20118;-83
2022/07/11 07:47:32;;;;;;;1.60;0.30;;;16.50;99.90;;;;;;5156040;27;20049;-85
2022/07/11 07:49:58;;;;;;;0.38;0.30;;;16.60;99.90;;;;;;5140739;27;20046;-83
2022/07/11 07:52:24;;;;;;;1.17;0.30;;;16.60;99.90;;;;;;5143632;27;20062;-84
2022/07/11 07:54:50;;;;;;;2.92;0.43;;;16.70;99.90;;;;;;5145106;27;20069;-84
2022/07/11 07:57:16;;;;;;;1.27;0.40;;;16.80;99.90;;;;;;5135083;27;20370;-83
2022/07/11 07:59:41;;;;;;;0.90;0.35;;;16.90;99.90;;;;;;5140253;27;20564;-83
2022/07/11 08:02:07;;;;;;;1.23;0.47;;;17.00;99.90;;;;;;5138283;27;20129;-82
2022/07/11 08:04:33;;;;;;;1.70;0.40;;;17.10;99.90;;;;;;5154711;27;20118;-82
2022/07/11 08:06:59;;;;;;;0.73;0.20;;;17.10;99.90;;;;;;5156587;27;20378;-83
2022/07/11 08:09:25;;;;;;;0.55;0.20;;;17.20;99.90;;;;;;5137299;27;20049;-83
2022/07/11 08:11:51;;;;;;;0.52;0.20;;;17.20;99.90;;;;;;5153999;27;20042;-83
2022/07/11 08:14:20;;;;;;;0.70;0.38;;;17.20;99.90;;;;;;5146629;27;20458;-84
2022/07/11 08:16:47;;;;;;;1.27;0.20;;;17.20;99.90;;;;;;5144351;27;20043;-83
2022/07/11 08:19:13;;;;;;;0.90;0.10;;;17.20;99.90;;;;;;5154713;27;20055;-83
2022/07/11 08:21:39;;;;;;;0.43;0.17;;;17.30;99.90;;;;;;5132095;27;20039;-83
2022/07/11 08:24:06;;;;;;;0.65;0.28;;;17.50;99.90;;;;;;5139389;27;20112;-82
2022/07/11 08:26:32;;;;;;;0.55;0.43;;;17.60;99.90;;;;;;5155268;27;20042;-84
2022/07/11 08:28:58;;;;;;;0.90;0.22;;;17.70;99.90;;;;;;5155055;27;20054;-83
2022/07/11 08:31:25;;;;;;;0.73;0.20;;;17.70;99.90;;;;;;5128193;27;20039;-83
2022/07/11 08:33:52;;;;;;;0.82;0.32;;;17.70;99.90;;;;;;5116840;27;20059;-84
2022/07/11 08:36:18;;;;;;;1.00;0.20;;;17.70;99.90;;;;;;5136336;27;20043;-84
2022/07/11 08:38:46;;;;;;;0.22;0.10;;;17.70;99.90;;;;;;5155319;27;20039;-84
2022/07/11 08:41:13;;;;;;;0.20;0.20;;;17.70;99.90;;;;;;5154377;27;20053;-83
2022/07/11 08:43:42;;;;;;;0.20;0.20;;;17.70;99.90;;;;;;5136438;27;20039;-84
2022/07/11 08:46:09;;;;;;;2.78;0.30;;;17.60;99.90;;;;;;5134181;27;20122;-81
2022/07/11 08:48:38;;;;;;;1.10;0.30;;;17.40;99.90;;;;;;5134399;27;20045;-84
2022/07/11 08:51:05;;;;;;;2.45;0.28;;;17.40;99.90;;;;;;5136654;27;20050;-84
2022/07/11 08:53:33;;;;;;;3.35;0.30;;;17.40;99.90;;;;;;5136528;27;20065;-84
2022/07/11 08:56:01;;;;;;;0.40;0.30;;;17.40;99.90;;;;;;5132116;27;20104;-84
2022/07/11 08:58:27;;;;;;;0.40;0.30;;;17.40;99.90;;;;;;5135479;27;20095;-83
2022/07/11 09:00:54;;;;;;;0.68;0.20;;;17.60;99.90;;;;;;5120419;27;20043;-84
2022/07/11 09:03:22;;;;;;;0.85;0.35;;;17.70;99.90;;;;;;5137145;27;20054;-83
2022/07/11 09:05:47;;;;;;;0.47;0.30;;;17.80;99.90;;;;;;5153762;27;20062;-84
2022/07/11 09:08:13;;;;;;;0.10;0.10;;;17.80;99.90;;;;;;5154525;27;20097;-84
2022/07/11 09:10:40;;;;;;;1.10;0.20;;;17.80;99.90;;;;;;5154561;27;20042;-83
2022/07/11 09:13:08;;;;;;;1.80;0.32;;;17.80;99.90;;;;;;5155258;27;20094;-84
2022/07/11 09:15:48;;;;;;;1.15;0.25;;;17.70;99.90;;;;;;5128162;27;20129;-84
2022/07/11 09:18:40;;;;;;;1.00;0.20;;;17.70;99.90;;;;;;5155575;27;20516;-83
2022/07/11 09:26:46;;;;;;;0.20;0.20;;;17.70;99.90;;;;;;5134228;27;20122;-84
2022/07/11 09:29:25;;;;;;;0.30;0.30;;;17.80;99.90;;;;;;5154179;27;20043;-84
2022/07/11 09:31:51;;;;;;;0.50;0.20;;;17.70;99.90;;;;;;5154453;27;20042;-84
2022/07/11 09:34:23;;;;;;;0.98;0.20;;;17.70;99.90;;;;;;5155058;27;20103;-83
2022/07/11 09:36:51;;;;;;;2.15;0.30;;;17.70;99.90;;;;;;5152571;27;20051;-83
2022/07/11 09:39:19;;;;;;;0.30;0.10;;;17.80;99.90;;;;;;5154918;27;20039;-84
2022/07/11 09:41:47;;;;;;;0.80;0.30;;;17.80;99.90;;;;;;5136225;27;20440;-84
2022/07/11 09:44:28;;;;;;;0.90;0.40;;;17.90;99.90;;;;;;5133917;28;20397;-84
2022/07/11 09:46:56;;;;;;;0.60;0.30;;;17.90;99.90;;;;;;5137161;27;20062;-84
2022/07/11 09:49:36;;;;;;;0.30;0.10;;;18.00;99.90;;;;;;5133559;28;20043;-84
2022/07/11 09:52:17;;;;;;;0.20;0.10;;;18.10;99.90;;;;;;5134354;28;20047;-85
2022/07/11 09:54:56;;;;;;;0.22;0.20;;;18.10;99.90;;;;;;5135558;27;20054;-84
2022/07/11 09:57:36;;;;;;;0.77;0.28;;;18.10;99.90;;;;;;5133469;28;20054;-84
2022/07/11 10:00:11;;;;;;;1.13;0.43;;;18.10;99.90;;;;;;5137676;27;20106;-83
2022/07/11 10:02:37;;;;;;;0.43;0.30;;;18.10;99.90;;;;;;5154909;27;20050;-83
2022/07/11 10:05:04;;;;;;;1.27;0.30;;;18.10;99.90;;;;;;5135011;27;20149;-84
2022/07/11 10:07:30;;;;;;;1.75;0.40;;;18.10;99.90;;;;;;5136704;27;20055;-83
2022/07/11 10:09:58;;;;;;;1.73;0.28;;;18.10;99.90;;;;;;5153188;27;20045;-84
2022/07/11 10:12:25;;;;;;;1.10;0.32;;;18.10;99.90;;;;;;5135879;27;20054;-84
2022/07/11 10:14:52;;;;;;;1.20;0.30;;;18.10;99.90;;;;;;5135584;27;20061;-84
2022/07/11 10:17:33;;;;;;;0.40;0.20;;;18.10;99.90;;;;;;5154031;27;20144;-84
2022/07/11 10:20:07;;;;;;;0.93;0.30;;;18.30;99.90;;;;;;5153852;27;20134;-84
2022/07/11 10:22:46;;;;;;;0.30;0.20;;;18.40;99.90;;;;;;5136474;27;20500;-84
2022/07/11 10:25:31;;;;;;;0.20;0.20;;;18.50;99.90;;;;;;5153209;27;20046;-84
2022/07/11 10:28:10;;;;;;;3.10;0.30;;;18.50;99.90;;;;;;5134597;28;20039;-84
2022/07/11 10:30:47;;;;;;;0.70;0.22;;;18.50;99.90;;;;;;5132663;27;20057;-84
2022/07/11 10:33:15;;;;;;;0.45;0.22;;;18.50;99.90;;;;;;5119423;28;20118;-84
2022/07/11 10:35:45;;;;;;;1.67;0.30;;;18.50;99.90;;;;;;5151882;27;20038;-83
2022/07/11 10:38:11;;;;;;;1.35;0.30;;;18.50;99.90;;;;;;5156407;27;20125;-84
2022/07/11 10:40:46;;;;;;;1.08;0.32;;;18.50;99.90;;;;;;5156985;27;20121;-84
2022/07/11 10:43:33;;;;;;;0.38;0.20;;;18.60;99.90;;;;;;5140092;27;20475;-84
2022/07/11 10:46:00;;;;;;;0.40;0.40;;;18.50;99.90;;;;;;5143901;27;20059;-84
2022/07/11 10:48:29;;;;;;;0.22;0.20;;;18.50;99.90;;;;;;5137626;27;20546;-84
2022/07/11 10:51:06;;;;;;;0.63;0.30;;;18.50;99.90;;;;;;5138880;27;20428;-84
2022/07/11 10:53:44;;;;;;;1.85;0.30;;;18.60;99.90;;;;;;5157453;27;20043;-83
2022/07/11 10:56:41;;;;;;;3.47;0.45;;;18.60;99.90;;;;;;5136949;27;20485;-84
2022/07/11 10:59:15;;;;;;;0.10;0.10;;;18.60;99.90;;;;;;5050089;27;20047;-83
2022/07/11 11:02:03;;;;;;;1.00;0.17;;;18.60;99.90;;;;;;5118711;27;20055;-84
2022/07/11 11:04:49;;;;;;;1.10;0.30;;;18.60;99.90;;;;;;5127916;27;20046;-84
2022/07/11 11:07:41;;;;;;;1.48;0.30;;;18.60;99.90;;;;;;5157373;27;20069;-84
2022/07/11 11:10:29;;;;;;;1.20;0.30;;;18.70;99.90;;;;;;5138260;27;20103;-84
2022/07/11 11:13:10;;;;;;;1.75;0.20;;;18.70;99.90;;;;;;5138906;27;20115;-84
2022/07/11 11:15:42;;;;;;;1.10;0.20;;;18.70;99.90;;;;;;5137718;27;20054;-84
2022/07/11 11:18:23;;;;;;;1.50;0.30;;;18.80;99.90;;;;;;5157489;27;20046;-84
2022/07/11 11:21:00;;;;;;;0.38;0.17;;;18.90;99.90;;;;;;5155405;27;20053;-84
2022/07/11 11:23:35;;;;;;;0.43;0.20;;;18.90;99.90;;;;;;5157501;27;20038;-84
2022/07/11 11:26:20;;;;;;;0.28;0.20;;;19.00;99.90;;;;;;5136554;27;20043;-84
2022/07/11 11:28:56;;;;;;;0.45;0.20;;;19.00;99.90;;;;;;5118345;27;20054;-83
2022/07/11 11:31:22;;;;;;;0.17;0.17;;;19.00;99.90;;;;;;5157060;27;20135;-84
2022/07/11 11:33:51;;;;;;;0.75;0.20;;;19.00;99.90;;;;;;5155663;27;20126;-84
2022/07/11 11:36:21;;;;;;;0.65;0.25;;;19.60;99.90;;;;;;5156342;27;20421;-84
2022/07/11 11:38:48;;;;;;;1.20;0.32;;;19.10;99.90;;;;;;5156256;27;20119;-84
2022/07/11 11:41:21;;;;;;;0.43;0.25;;;19.10;99.90;;;;;;5138081;27;20134;-83
2022/07/11 11:43:47;;;;;;;3.00;0.40;;;19.10;99.90;;;;;;5153262;27;20121;-84
2022/07/11 11:46:13;;;;;;;0.17;0.15;;;19.10;99.90;;;;;;5156835;27;20099;-84
2022/07/11 11:48:45;;;;;;;0.47;0.32;;;19.20;99.90;;;;;;5155093;27;20042;-83
2022/07/11 11:51:16;;;;;;;0.13;0.13;;;19.20;99.90;;;;;;5156874;27;20044;-83
2022/07/11 11:53:44;;;;;;;0.20;0.20;;;19.30;99.90;;;;;;5137208;27;20050;-84
2022/07/11 11:56:13;;;;;;;0.20;0.20;;;19.40;99.90;;;;;;5155882;27;20042;-84
2022/07/11 11:58:43;;;;;;;0.30;0.17;;;19.40;99.90;;;;;;5136950;27;20047;-83
2022/07/11 12:01:12;;;;;;;0.28;0.10;;;19.40;99.90;;;;;;5137973;27;20108;-84
2022/07/11 12:03:55;;;;;;;2.17;0.30;;;19.30;99.90;;;;;;5136515;27;20047;-84
2022/07/11 12:06:26;;;;;;;0.40;0.28;;;19.40;99.90;;;;;;5156319;27;20121;-84
2022/07/11 12:08:57;;;;;;;0.20;0.10;;;19.40;99.90;;;;;;5120986;27;20047;-83
2022/07/11 12:11:23;;;;;;;0.32;0.10;;;19.50;99.90;;;;;;5135192;27;20088;-83
2022/07/11 12:13:59;;;;;;;0.50;0.17;;;19.40;99.90;;;;;;5135848;27;20443;-83
2022/07/11 12:16:43;;;;;;;0.20;0.10;;;19.40;99.90;;;;;;5138204;27;20043;-84
2022/07/11 12:19:12;;;;;;;1.27;0.43;;;19.50;99.90;;;;;;5154895;27;20093;-84
2022/07/11 12:21:43;;;;;;;0.50;0.30;;;19.50;99.90;;;;;;5137132;27;20050;-84
2022/07/11 12:24:12;;;;;;;0.70;0.30;;;19.50;99.90;;;;;;5154427;27;20062;-84
2022/07/11 12:26:40;;;;;;;0.63;0.20;;;19.60;99.90;;;;;;5156231;27;20549;-84
2022/07/11 12:29:16;;;;;;;0.25;0.15;;;19.60;99.90;;;;;;5155152;27;20121;-84
2022/07/11 12:31:50;;;;;;;0.52;0.30;;;19.60;99.90;;;;;;5137042;27;20049;-83
2022/07/11 12:34:32;;;;;;;0.60;0.30;;;19.60;99.90;;;;;;5155155;27;20043;-84
2022/07/11 12:37:18;;;;;;;3.25;0.30;;;19.60;99.90;;;;;;5137571;27;20069;-85
2022/07/11 12:39:51;;;;;;;0.77;0.30;;;19.70;99.90;;;;;;5151203;27;20045;-84
2022/07/11 12:42:46;;;;;;;1.10;0.30;;;19.60;99.90;;;;;;5116905;27;20051;-84
2022/07/11 12:45:12;;;;;;;0.65;0.17;;;19.60;99.90;;;;;;5141142;27;20406;-83
2022/07/11 12:47:40;;;;;;;1.40;0.30;;;19.50;99.90;;;;;;5155700;27;20378;-85
2022/07/11 12:50:21;;;;;;;1.42;0.30;;;19.50;99.90;;;;;;5136007;27;20548;-84
2022/07/11 12:52:49;;;;;;;0.55;0.30;;;19.50;99.90;;;;;;5115873;27;20042;-84
2022/07/11 12:55:30;;;;;;;0.30;0.30;;;19.50;99.90;;;;;;5143885;27;20043;-84
2022/07/11 12:58:18;;;;;;;0.30;0.30;;;19.50;99.90;;;;;;5155541;27;20103;-85
2022/07/11 13:00:58;;;;;;;0.45;0.30;;;19.50;99.90;;;;;;5134754;27;20485;-85